sensor_id;sensor_type;location;lat;lon;timestamp;P1;durP1;ratioP1;P2;durP2;ratioP2
27889;SDS011;15238;49.082;9.102;2024-03-23T00:55:01;7.30;;;5.35;;
27889;SDS011;15238;49.082;9.102;2024-03-23T00:57:02;7.07;;;5.00;;
27889;SDS011;15238;49.082;9.102;2024-03-23T00:59:05;7.95;;;5.40;;
27889;SDS011;15238;49.082;9.102;2024-03-23T01:01:06;8.50;;;4.78;;
27889;SDS011;15238;49.082;9.102;2024-03-23T01:03:06;8.00;;;5.32;;
27889;SDS011;15238;49.082;9.102;2024-03-23T01:05:07;11.07;;;5.80;;
27889;SDS011;15238;49.082;9.102;2024-03-23T01:07:14;9.02;;;5.05;;
27889;SDS011;15238;49.082;9.102;2024-03-23T01:09:23;8.30;;;5.32;;
27889;SDS011;15238;49.082;9.102;2024-03-23T01:11:24;8.07;;;5.20;;
27889;SDS011;15238;49.082;9.102;2024-03-23T01:13:24;7.72;;;4.97;;
27889;SDS011;15238;49.082;9.102;2024-03-23T01:15:25;7.90;;;5.22;;
27889;SDS011;15238;49.082;9.102;2024-03-23T01:17:26;7.18;;;5.53;;
27889;SDS011;15238;49.082;9.102;2024-03-23T01:19:32;6.82;;;5.10;;
27889;SDS011;15238;49.082;9.102;2024-03-23T01:21:32;7.45;;;5.15;;
27889;SDS011;15238;49.082;9.102;2024-03-23T01:23:33;7.78;;;5.03;;
27889;SDS011;15238;49.082;9.102;2024-03-23T01:25:33;8.13;;;5.05;;
27889;SDS011;15238;49.082;9.102;2024-03-23T01:27:34;13.70;;;5.50;;
27889;SDS011;15238;49.082;9.102;2024-03-23T01:29:34;10.57;;;5.55;;
27889;SDS011;15238;49.082;9.102;2024-03-23T01:31:35;7.45;;;5.25;;
27889;SDS011;15238;49.082;9.102;2024-03-23T01:33:35;9.75;;;5.22;;
27889;SDS011;15238;49.082;9.102;2024-03-23T01:35:36;7.20;;;4.43;;
27889;SDS011;15238;49.082;9.102;2024-03-23T01:37:36;9.30;;;4.18;;
27889;SDS011;15238;49.082;9.102;2024-03-23T01:39:37;7.07;;;3.95;;
27889;SDS011;15238;49.082;9.102;2024-03-23T01:41:43;10.40;;;4.20;;
27889;SDS011;15238;49.082;9.102;2024-03-23T01:43:44;7.43;;;4.22;;
27889;SDS011;15238;49.082;9.102;2024-03-23T01:45:51;6.50;;;4.55;;
27889;SDS011;15238;49.082;9.102;2024-03-23T01:47:53;8.18;;;4.90;;
27889;SDS011;15238;49.082;9.102;2024-03-23T01:49:55;8.82;;;5.15;;
27889;SDS011;15238;49.082;9.102;2024-03-23T01:52:02;9.63;;;5.82;;
27889;SDS011;15238;49.082;9.102;2024-03-23T01:54:03;10.95;;;5.13;;
27889;SDS011;15238;49.082;9.102;2024-03-23T01:56:05;7.40;;;4.18;;
27889;SDS011;15238;49.082;9.102;2024-03-23T01:58:06;8.27;;;4.40;;
27889;SDS011;15238;49.082;9.102;2024-03-23T02:00:07;7.15;;;4.22;;
27889;SDS011;15238;49.082;9.102;2024-03-23T02:02:08;7.65;;;4.28;;
27889;SDS011;15238;49.082;9.102;2024-03-23T02:04:08;6.55;;;3.90;;
27889;SDS011;15238;49.082;9.102;2024-03-23T02:06:09;7.28;;;4.00;;
27889;SDS011;15238;49.082;9.102;2024-03-23T02:08:10;6.75;;;3.95;;
27889;SDS011;15238;49.082;9.102;2024-03-23T02:10:10;6.85;;;4.25;;
27889;SDS011;15238;49.082;9.102;2024-03-23T02:12:13;4.82;;;3.63;;
27889;SDS011;15238;49.082;9.102;2024-03-23T02:14:16;5.35;;;3.80;;
27889;SDS011;15238;49.082;9.102;2024-03-23T02:16:17;7.68;;;4.47;;
27889;SDS011;15238;49.082;9.102;2024-03-23T02:18:17;6.18;;;4.30;;
27889;SDS011;15238;49.082;9.102;2024-03-23T02:20:18;8.95;;;4.72;;
27889;SDS011;15238;49.082;9.102;2024-03-23T02:22:18;6.13;;;3.67;;
27889;SDS011;15238;49.082;9.102;2024-03-23T02:24:19;5.75;;;4.10;;
27889;SDS011;15238;49.082;9.102;2024-03-23T02:26:19;7.05;;;4.20;;
27889;SDS011;15238;49.082;9.102;2024-03-23T02:28:20;6.32;;;4.30;;
27889;SDS011;15238;49.082;9.102;2024-03-23T02:30:22;7.07;;;4.35;;
27889;SDS011;15238;49.082;9.102;2024-03-23T02:32:22;6.38;;;4.00;;
27889;SDS011;15238;49.082;9.102;2024-03-23T02:34:23;9.18;;;4.32;;
27889;SDS011;15238;49.082;9.102;2024-03-23T02:36:23;5.85;;;4.00;;
27889;SDS011;15238;49.082;9.102;2024-03-23T02:38:24;6.85;;;4.18;;
27889;SDS011;15238;49.082;9.102;2024-03-23T02:40:24;9.50;;;4.60;;
27889;SDS011;15238;49.082;9.102;2024-03-23T02:42:26;6.63;;;4.22;;
27889;SDS011;15238;49.082;9.102;2024-03-23T02:44:26;8.88;;;4.25;;
27889;SDS011;15238;49.082;9.102;2024-03-23T02:46:27;8.50;;;4.45;;
27889;SDS011;15238;49.082;9.102;2024-03-23T02:48:27;6.30;;;4.47;;
27889;SDS011;15238;49.082;9.102;2024-03-23T02:50:31;6.40;;;4.43;;
27889;SDS011;15238;49.082;9.102;2024-03-23T02:52:34;6.70;;;4.50;;
27889;SDS011;15238;49.082;9.102;2024-03-23T02:54:38;6.72;;;4.40;;
27889;SDS011;15238;49.082;9.102;2024-03-23T02:56:38;5.72;;;4.15;;
27889;SDS011;15238;49.082;9.102;2024-03-23T02:58:39;7.57;;;5.05;;
27889;SDS011;15238;49.082;9.102;2024-03-23T03:00:40;6.18;;;4.43;;
27889;SDS011;15238;49.082;9.102;2024-03-23T03:02:40;7.03;;;4.53;;
27889;SDS011;15238;49.082;9.102;2024-03-23T03:04:41;7.18;;;4.45;;
27889;SDS011;15238;49.082;9.102;2024-03-23T03:06:43;8.98;;;4.90;;
27889;SDS011;15238;49.082;9.102;2024-03-23T03:08:48;6.35;;;4.43;;
27889;SDS011;15238;49.082;9.102;2024-03-23T03:10:49;9.18;;;5.47;;
27889;SDS011;15238;49.082;9.102;2024-03-23T03:12:49;7.78;;;5.18;;
27889;SDS011;15238;49.082;9.102;2024-03-23T03:14:50;10.05;;;5.47;;
27889;SDS011;15238;49.082;9.102;2024-03-23T03:16:50;10.00;;;5.45;;
27889;SDS011;15238;49.082;9.102;2024-03-23T03:18:51;9.25;;;4.78;;
27889;SDS011;15238;49.082;9.102;2024-03-23T03:20:54;9.65;;;5.20;;
27889;SDS011;15238;49.082;9.102;2024-03-23T03:22:54;9.05;;;4.63;;
27889;SDS011;15238;49.082;9.102;2024-03-23T03:24:55;7.38;;;5.20;;
27889;SDS011;15238;49.082;9.102;2024-03-23T03:26:55;7.72;;;4.25;;
27889;SDS011;15238;49.082;9.102;2024-03-23T03:28:57;7.55;;;4.25;;
27889;SDS011;15238;49.082;9.102;2024-03-23T03:30:58;4.32;;;3.50;;
27889;SDS011;15238;49.082;9.102;2024-03-23T03:32:59;6.95;;;3.90;;
27889;SDS011;15238;49.082;9.102;2024-03-23T03:35:00;5.95;;;3.72;;
27889;SDS011;15238;49.082;9.102;2024-03-23T03:37:06;6.18;;;3.88;;
27889;SDS011;15238;49.082;9.102;2024-03-23T03:39:07;4.03;;;3.30;;
27889;SDS011;15238;49.082;9.102;2024-03-23T03:41:07;5.57;;;3.42;;
27889;SDS011;15238;49.082;9.102;2024-03-23T03:43:08;10.20;;;4.03;;
27889;SDS011;15238;49.082;9.102;2024-03-23T03:45:08;4.82;;;3.70;;
27889;SDS011;15238;49.082;9.102;2024-03-23T03:47:09;5.40;;;3.50;;
27889;SDS011;15238;49.082;9.102;2024-03-23T03:49:09;7.80;;;4.00;;
27889;SDS011;15238;49.082;9.102;2024-03-23T03:51:10;9.13;;;4.03;;
27889;SDS011;15238;49.082;9.102;2024-03-23T03:53:11;4.80;;;3.92;;
27889;SDS011;15238;49.082;9.102;2024-03-23T03:55:12;8.63;;;4.63;;
27889;SDS011;15238;49.082;9.102;2024-03-23T03:57:14;6.65;;;4.13;;
27889;SDS011;15238;49.082;9.102;2024-03-23T03:59:15;9.48;;;5.07;;
27889;SDS011;15238;49.082;9.102;2024-03-23T04:01:15;8.98;;;4.80;;
27889;SDS011;15238;49.082;9.102;2024-03-23T04:03:16;10.07;;;4.40;;
27889;SDS011;15238;49.082;9.102;2024-03-23T04:05:16;6.90;;;4.70;;
27889;SDS011;15238;49.082;9.102;2024-03-23T04:07:17;6.97;;;5.10;;
27889;SDS011;15238;49.082;9.102;2024-03-23T04:09:18;12.98;;;5.65;;
27889;SDS011;15238;49.082;9.102;2024-03-23T04:11:18;8.02;;;5.28;;
27889;SDS011;15238;49.082;9.102;2024-03-23T04:13:19;9.32;;;5.15;;
27889;SDS011;15238;49.082;9.102;2024-03-23T04:15:20;7.63;;;5.38;;
27889;SDS011;15238;49.082;9.102;2024-03-23T04:17:20;9.93;;;5.63;;
27889;SDS011;15238;49.082;9.102;2024-03-23T04:19:21;10.35;;;6.07;;
27889;SDS011;15238;49.082;9.102;2024-03-23T04:21:21;12.05;;;5.90;;
27889;SDS011;15238;49.082;9.102;2024-03-23T04:23:22;10.43;;;5.90;;
27889;SDS011;15238;49.082;9.102;2024-03-23T04:25:23;11.60;;;6.28;;
27889;SDS011;15238;49.082;9.102;2024-03-23T04:27:24;14.05;;;7.30;;
27889;SDS011;15238;49.082;9.102;2024-03-23T04:29:24;11.50;;;7.38;;
27889;SDS011;15238;49.082;9.102;2024-03-23T04:31:26;11.70;;;7.70;;
27889;SDS011;15238;49.082;9.102;2024-03-23T04:33:27;11.90;;;7.43;;
27889;SDS011;15238;49.082;9.102;2024-03-23T04:35:27;11.63;;;7.90;;
27889;SDS011;15238;49.082;9.102;2024-03-23T04:37:28;11.38;;;7.78;;
27889;SDS011;15238;49.082;9.102;2024-03-23T04:39:28;12.98;;;8.35;;
27889;SDS011;15238;49.082;9.102;2024-03-23T04:41:29;13.38;;;7.72;;
27889;SDS011;15238;49.082;9.102;2024-03-23T04:43:30;12.98;;;8.27;;
27889;SDS011;15238;49.082;9.102;2024-03-23T04:45:30;13.70;;;8.05;;
27889;SDS011;15238;49.082;9.102;2024-03-23T04:47:31;15.65;;;8.30;;
27889;SDS011;15238;49.082;9.102;2024-03-23T04:49:31;11.70;;;7.38;;
27889;SDS011;15238;49.082;9.102;2024-03-23T04:51:35;12.50;;;8.20;;
27889;SDS011;15238;49.082;9.102;2024-03-23T04:53:37;14.02;;;7.75;;
27889;SDS011;15238;49.082;9.102;2024-03-23T04:55:38;13.52;;;8.48;;
27889;SDS011;15238;49.082;9.102;2024-03-23T04:57:39;12.18;;;8.23;;
27889;SDS011;15238;49.082;9.102;2024-03-23T04:59:39;11.52;;;8.02;;
27889;SDS011;15238;49.082;9.102;2024-03-23T05:01:40;13.65;;;8.75;;
27889;SDS011;15238;49.082;9.102;2024-03-23T05:03:42;14.18;;;8.48;;
27889;SDS011;15238;49.082;9.102;2024-03-23T05:05:42;11.20;;;7.93;;
27889;SDS011;15238;49.082;9.102;2024-03-23T05:07:43;16.98;;;8.65;;
27889;SDS011;15238;49.082;9.102;2024-03-23T05:09:43;12.75;;;8.50;;
27889;SDS011;15238;49.082;9.102;2024-03-23T05:11:43;16.88;;;8.90;;
27889;SDS011;15238;49.082;9.102;2024-03-23T05:13:45;13.10;;;8.25;;
27889;SDS011;15238;49.082;9.102;2024-03-23T05:15:50;11.80;;;8.15;;
27889;SDS011;15238;49.082;9.102;2024-03-23T05:18:00;10.85;;;7.30;;
27889;SDS011;15238;49.082;9.102;2024-03-23T05:20:01;13.98;;;8.27;;
27889;SDS011;15238;49.082;9.102;2024-03-23T05:22:01;12.15;;;7.25;;
27889;SDS011;15238;49.082;9.102;2024-03-23T05:24:02;12.32;;;7.72;;
27889;SDS011;15238;49.082;9.102;2024-03-23T05:26:03;14.10;;;7.93;;
27889;SDS011;15238;49.082;9.102;2024-03-23T05:28:04;13.60;;;8.63;;
27889;SDS011;15238;49.082;9.102;2024-03-23T05:30:05;10.80;;;7.35;;
27889;SDS011;15238;49.082;9.102;2024-03-23T05:32:06;14.05;;;8.07;;
27889;SDS011;15238;49.082;9.102;2024-03-23T05:34:13;15.30;;;9.55;;
27889;SDS011;15238;49.082;9.102;2024-03-23T05:36:13;16.42;;;9.50;;
27889;SDS011;15238;49.082;9.102;2024-03-23T05:38:14;15.65;;;9.20;;
27889;SDS011;15238;49.082;9.102;2024-03-23T05:40:17;16.15;;;11.02;;
27889;SDS011;15238;49.082;9.102;2024-03-23T05:42:18;13.10;;;8.82;;
27889;SDS011;15238;49.082;9.102;2024-03-23T05:44:19;16.52;;;9.40;;
27889;SDS011;15238;49.082;9.102;2024-03-23T05:46:19;12.57;;;8.80;;
27889;SDS011;15238;49.082;9.102;2024-03-23T05:48:20;16.63;;;9.20;;
27889;SDS011;15238;49.082;9.102;2024-03-23T05:50:20;14.23;;;8.65;;
27889;SDS011;15238;49.082;9.102;2024-03-23T05:52:21;16.27;;;9.15;;
27889;SDS011;15238;49.082;9.102;2024-03-23T05:54:21;15.82;;;8.55;;
27889;SDS011;15238;49.082;9.102;2024-03-23T05:56:22;12.95;;;9.60;;
27889;SDS011;15238;49.082;9.102;2024-03-23T05:58:22;14.25;;;8.25;;
27889;SDS011;15238;49.082;9.102;2024-03-23T06:00:22;14.88;;;7.75;;
27889;SDS011;15238;49.082;9.102;2024-03-23T06:02:26;15.15;;;8.05;;
27889;SDS011;15238;49.082;9.102;2024-03-23T06:04:26;10.43;;;6.78;;
27889;SDS011;15238;49.082;9.102;2024-03-23T06:06:27;11.80;;;6.80;;
27889;SDS011;15238;49.082;9.102;2024-03-23T06:08:33;9.45;;;6.20;;
27889;SDS011;15238;49.082;9.102;2024-03-23T06:10:33;9.77;;;6.93;;
27889;SDS011;15238;49.082;9.102;2024-03-23T06:12:34;11.18;;;6.65;;
27889;SDS011;15238;49.082;9.102;2024-03-23T06:14:34;8.77;;;5.80;;
27889;SDS011;15238;49.082;9.102;2024-03-23T06:16:38;8.45;;;6.00;;
27889;SDS011;15238;49.082;9.102;2024-03-23T06:18:39;8.57;;;6.22;;
27889;SDS011;15238;49.082;9.102;2024-03-23T06:20:39;8.93;;;5.80;;
27889;SDS011;15238;49.082;9.102;2024-03-23T06:22:40;7.50;;;5.05;;
27889;SDS011;15238;49.082;9.102;2024-03-23T06:24:40;5.60;;;4.15;;
27889;SDS011;15238;49.082;9.102;2024-03-23T06:26:41;4.57;;;3.05;;
27889;SDS011;15238;49.082;9.102;2024-03-23T06:28:41;3.95;;;2.53;;
27889;SDS011;15238;49.082;9.102;2024-03-23T06:30:42;2.47;;;1.65;;
27889;SDS011;15238;49.082;9.102;2024-03-23T06:32:42;3.08;;;1.23;;
27889;SDS011;15238;49.082;9.102;2024-03-23T06:34:43;1.90;;;1.00;;
27889;SDS011;15238;49.082;9.102;2024-03-23T06:36:44;1.40;;;0.90;;
27889;SDS011;15238;49.082;9.102;2024-03-23T06:38:46;1.48;;;1.00;;
27889;SDS011;15238;49.082;9.102;2024-03-23T06:40:47;1.35;;;1.13;;
27889;SDS011;15238;49.082;9.102;2024-03-23T06:42:50;2.10;;;1.15;;
27889;SDS011;15238;49.082;9.102;2024-03-23T06:44:52;2.00;;;0.95;;
27889;SDS011;15238;49.082;9.102;2024-03-23T06:46:52;2.38;;;0.90;;
27889;SDS011;15238;49.082;9.102;2024-03-23T06:48:53;1.60;;;0.88;;
27889;SDS011;15238;49.082;9.102;2024-03-23T06:50:57;2.38;;;0.80;;
27889;SDS011;15238;49.082;9.102;2024-03-23T06:52:57;2.15;;;1.30;;
27889;SDS011;15238;49.082;9.102;2024-03-23T06:54:58;1.60;;;1.15;;
27889;SDS011;15238;49.082;9.102;2024-03-23T06:56:58;1.17;;;0.82;;
27889;SDS011;15238;49.082;9.102;2024-03-23T06:58:59;1.20;;;0.77;;
27889;SDS011;15238;49.082;9.102;2024-03-23T07:00:59;1.48;;;0.82;;
27889;SDS011;15238;49.082;9.102;2024-03-23T07:03:00;1.70;;;0.90;;
27889;SDS011;15238;49.082;9.102;2024-03-23T07:05:01;1.42;;;0.93;;
27889;SDS011;15238;49.082;9.102;2024-03-23T07:07:01;1.42;;;0.80;;
27889;SDS011;15238;49.082;9.102;2024-03-23T07:09:02;0.75;;;0.75;;
27889;SDS011;15238;49.082;9.102;2024-03-23T07:11:02;2.85;;;1.20;;
27889;SDS011;15238;49.082;9.102;2024-03-23T07:13:03;1.55;;;1.02;;
27889;SDS011;15238;49.082;9.102;2024-03-23T07:15:04;2.80;;;1.00;;
27889;SDS011;15238;49.082;9.102;2024-03-23T07:17:04;2.38;;;1.30;;
27889;SDS011;15238;49.082;9.102;2024-03-23T07:19:08;1.88;;;1.00;;
27889;SDS011;15238;49.082;9.102;2024-03-23T07:21:08;2.28;;;0.90;;
27889;SDS011;15238;49.082;9.102;2024-03-23T07:23:09;3.30;;;0.80;;
27889;SDS011;15238;49.082;9.102;2024-03-23T07:25:10;1.75;;;0.98;;
27889;SDS011;15238;49.082;9.102;2024-03-23T07:27:10;1.98;;;1.00;;
27889;SDS011;15238;49.082;9.102;2024-03-23T07:29:10;0.93;;;0.77;;
27889;SDS011;15238;49.082;9.102;2024-03-23T07:31:12;0.93;;;0.63;;
27889;SDS011;15238;49.082;9.102;2024-03-23T07:33:14;1.65;;;0.75;;
27889;SDS011;15238;49.082;9.102;2024-03-23T07:35:14;1.30;;;0.70;;
27889;SDS011;15238;49.082;9.102;2024-03-23T07:37:15;1.88;;;0.85;;
27889;SDS011;15238;49.082;9.102;2024-03-23T07:39:15;0.88;;;0.52;;
27889;SDS011;15238;49.082;9.102;2024-03-23T07:41:17;0.65;;;0.40;;
27889;SDS011;15238;49.082;9.102;2024-03-23T07:43:19;1.27;;;0.52;;
27889;SDS011;15238;49.082;9.102;2024-03-23T07:45:20;1.70;;;0.57;;
27889;SDS011;15238;49.082;9.102;2024-03-23T07:47:20;2.03;;;0.30;;
27889;SDS011;15238;49.082;9.102;2024-03-23T07:49:21;1.40;;;0.50;;
27889;SDS011;15238;49.082;9.102;2024-03-23T07:51:22;0.70;;;0.43;;
27889;SDS011;15238;49.082;9.102;2024-03-23T07:53:22;4.72;;;0.50;;
27889;SDS011;15238;49.082;9.102;2024-03-23T07:55:23;1.25;;;0.50;;
27889;SDS011;15238;49.082;9.102;2024-03-23T07:57:24;0.77;;;0.47;;
27889;SDS011;15238;49.082;9.102;2024-03-23T07:59:24;2.72;;;0.40;;
27889;SDS011;15238;49.082;9.102;2024-03-23T08:01:25;0.90;;;0.40;;
27889;SDS011;15238;49.082;9.102;2024-03-23T08:03:25;2.25;;;0.47;;
27889;SDS011;15238;49.082;9.102;2024-03-23T08:05:26;1.58;;;0.30;;
27889;SDS011;15238;49.082;9.102;2024-03-23T08:07:26;1.00;;;0.40;;
27889;SDS011;15238;49.082;9.102;2024-03-23T08:09:27;4.07;;;0.30;;
27889;SDS011;15238;49.082;9.102;2024-03-23T08:11:28;0.32;;;0.28;;
27889;SDS011;15238;49.082;9.102;2024-03-23T08:13:30;4.32;;;0.40;;
27889;SDS011;15238;49.082;9.102;2024-03-23T08:15:31;0.68;;;0.40;;
27889;SDS011;15238;49.082;9.102;2024-03-23T08:17:34;0.80;;;0.40;;
27889;SDS011;15238;49.082;9.102;2024-03-23T08:19:35;5.68;;;0.30;;
27889;SDS011;15238;49.082;9.102;2024-03-23T08:21:35;0.80;;;0.40;;
27889;SDS011;15238;49.082;9.102;2024-03-23T08:23:36;0.20;;;0.20;;
27889;SDS011;15238;49.082;9.102;2024-03-23T08:25:38;0.32;;;0.32;;
27889;SDS011;15238;49.082;9.102;2024-03-23T08:27:38;0.88;;;0.20;;
27889;SDS011;15238;49.082;9.102;2024-03-23T08:29:39;0.55;;;0.30;;
27889;SDS011;15238;49.082;9.102;2024-03-23T08:31:39;0.68;;;0.32;;
27889;SDS011;15238;49.082;9.102;2024-03-23T08:33:40;1.30;;;0.40;;
27889;SDS011;15238;49.082;9.102;2024-03-23T08:35:42;0.85;;;0.40;;
27889;SDS011;15238;49.082;9.102;2024-03-23T08:37:52;2.65;;;0.60;;
27889;SDS011;15238;49.082;9.102;2024-03-23T08:39:52;2.03;;;0.60;;
27889;SDS011;15238;49.082;9.102;2024-03-23T08:41:53;3.38;;;0.88;;
27889;SDS011;15238;49.082;9.102;2024-03-23T08:43:53;3.05;;;0.70;;
27889;SDS011;15238;49.082;9.102;2024-03-23T08:45:54;3.40;;;0.98;;
27889;SDS011;15238;49.082;9.102;2024-03-23T08:47:54;2.70;;;0.90;;
27889;SDS011;15238;49.082;9.102;2024-03-23T08:49:55;1.73;;;0.77;;
27889;SDS011;15238;49.082;9.102;2024-03-23T08:51:55;2.70;;;0.82;;
27889;SDS011;15238;49.082;9.102;2024-03-23T08:53:56;3.58;;;0.70;;
27889;SDS011;15238;49.082;9.102;2024-03-23T08:55:57;3.75;;;1.10;;
27889;SDS011;15238;49.082;9.102;2024-03-23T08:57:59;1.95;;;0.73;;
27889;SDS011;15238;49.082;9.102;2024-03-23T09:00:00;3.58;;;0.82;;
27889;SDS011;15238;49.082;9.102;2024-03-23T09:02:01;3.13;;;0.65;;
27889;SDS011;15238;49.082;9.102;2024-03-23T09:04:01;1.67;;;0.55;;
27889;SDS011;15238;49.082;9.102;2024-03-23T09:06:02;4.10;;;0.80;;
27889;SDS011;15238;49.082;9.102;2024-03-23T09:08:10;0.77;;;0.68;;
27889;SDS011;15238;49.082;9.102;2024-03-23T09:10:11;3.65;;;1.08;;
27889;SDS011;15238;49.082;9.102;2024-03-23T09:12:11;4.18;;;1.42;;
27889;SDS011;15238;49.082;9.102;2024-03-23T09:14:12;1.55;;;0.70;;
27889;SDS011;15238;49.082;9.102;2024-03-23T09:16:12;3.08;;;0.90;;
27889;SDS011;15238;49.082;9.102;2024-03-23T09:18:13;1.90;;;0.95;;
27889;SDS011;15238;49.082;9.102;2024-03-23T09:20:13;0.95;;;0.80;;
27889;SDS011;15238;49.082;9.102;2024-03-23T09:22:14;5.18;;;1.00;;
27889;SDS011;15238;49.082;9.102;2024-03-23T09:24:14;2.80;;;1.45;;
27889;SDS011;15238;49.082;9.102;2024-03-23T09:26:15;4.35;;;1.17;;
27889;SDS011;15238;49.082;9.102;2024-03-23T09:28:15;3.13;;;1.10;;
27889;SDS011;15238;49.082;9.102;2024-03-23T09:30:16;3.35;;;1.10;;
27889;SDS011;15238;49.082;9.102;2024-03-23T09:32:17;3.42;;;1.20;;
27889;SDS011;15238;49.082;9.102;2024-03-23T09:34:17;6.18;;;1.23;;
27889;SDS011;15238;49.082;9.102;2024-03-23T09:36:18;2.70;;;0.80;;
27889;SDS011;15238;49.082;9.102;2024-03-23T09:38:19;2.83;;;1.10;;
27889;SDS011;15238;49.082;9.102;2024-03-23T09:40:19;4.40;;;1.42;;
27889;SDS011;15238;49.082;9.102;2024-03-23T09:42:20;6.10;;;1.08;;
27889;SDS011;15238;49.082;9.102;2024-03-23T09:44:21;4.22;;;1.50;;
27889;SDS011;15238;49.082;9.102;2024-03-23T09:46:21;4.30;;;1.73;;
27889;SDS011;15238;49.082;9.102;2024-03-23T09:48:23;4.78;;;1.55;;
27889;SDS011;15238;49.082;9.102;2024-03-23T09:50:23;7.25;;;1.33;;
27889;SDS011;15238;49.082;9.102;2024-03-23T09:52:24;4.38;;;1.80;;
27889;SDS011;15238;49.082;9.102;2024-03-23T09:54:24;5.50;;;1.48;;
27889;SDS011;15238;49.082;9.102;2024-03-23T09:56:25;4.95;;;1.20;;
27889;SDS011;15238;49.082;9.102;2024-03-23T09:58:25;5.38;;;1.48;;
27889;SDS011;15238;49.082;9.102;2024-03-23T10:00:26;3.10;;;1.45;;
27889;SDS011;15238;49.082;9.102;2024-03-23T10:02:26;2.67;;;1.40;;
27889;SDS011;15238;49.082;9.102;2024-03-23T10:04:38;4.18;;;1.42;;
27889;SDS011;15238;49.082;9.102;2024-03-23T10:06:39;3.97;;;1.35;;
27889;SDS011;15238;49.082;9.102;2024-03-23T10:08:39;4.10;;;1.60;;
27889;SDS011;15238;49.082;9.102;2024-03-23T10:10:40;6.65;;;1.85;;
27889;SDS011;15238;49.082;9.102;2024-03-23T10:12:45;4.38;;;2.33;;
27889;SDS011;15238;49.082;9.102;2024-03-23T10:14:47;10.93;;;2.30;;
27889;SDS011;15238;49.082;9.102;2024-03-23T10:16:48;4.95;;;1.58;;
27889;SDS011;15238;49.082;9.102;2024-03-23T10:18:48;4.85;;;1.65;;
27889;SDS011;15238;49.082;9.102;2024-03-23T10:21:00;5.82;;;1.67;;
27889;SDS011;15238;49.082;9.102;2024-03-23T10:23:07;7.70;;;1.98;;
27889;SDS011;15238;49.082;9.102;2024-03-23T10:25:16;8.25;;;1.63;;
27889;SDS011;15238;49.082;9.102;2024-03-23T10:27:18;6.07;;;2.33;;
27889;SDS011;15238;49.082;9.102;2024-03-23T10:29:19;5.47;;;1.50;;
27889;SDS011;15238;49.082;9.102;2024-03-23T10:31:20;6.57;;;1.83;;
27889;SDS011;15238;49.082;9.102;2024-03-23T10:33:21;4.55;;;1.42;;
27889;SDS011;15238;49.082;9.102;2024-03-23T10:35:24;7.75;;;1.70;;
27889;SDS011;15238;49.082;9.102;2024-03-23T10:37:25;4.03;;;1.50;;
27889;SDS011;15238;49.082;9.102;2024-03-23T10:39:25;5.53;;;1.63;;
27889;SDS011;15238;49.082;9.102;2024-03-23T10:41:27;5.57;;;1.80;;
27889;SDS011;15238;49.082;9.102;2024-03-23T10:43:29;9.57;;;1.80;;
27889;SDS011;15238;49.082;9.102;2024-03-23T10:45:32;6.45;;;2.00;;
27889;SDS011;15238;49.082;9.102;2024-03-23T10:47:34;5.60;;;1.92;;
27889;SDS011;15238;49.082;9.102;2024-03-23T10:49:38;10.10;;;1.92;;
27889;SDS011;15238;49.082;9.102;2024-03-23T10:51:39;4.97;;;1.92;;
27889;SDS011;15238;49.082;9.102;2024-03-23T10:53:39;6.95;;;1.88;;
27889;SDS011;15238;49.082;9.102;2024-03-23T10:55:40;5.93;;;2.22;;
27889;SDS011;15238;49.082;9.102;2024-03-23T10:57:43;8.90;;;2.03;;
27889;SDS011;15238;49.082;9.102;2024-03-23T10:59:48;8.85;;;2.40;;
27889;SDS011;15238;49.082;9.102;2024-03-23T11:01:56;8.93;;;2.33;;
27889;SDS011;15238;49.082;9.102;2024-03-23T11:03:57;8.60;;;2.42;;
27889;SDS011;15238;49.082;9.102;2024-03-23T11:05:58;5.40;;;2.30;;
27889;SDS011;15238;49.082;9.102;2024-03-23T11:08:00;7.88;;;2.13;;
27889;SDS011;15238;49.082;9.102;2024-03-23T11:10:00;9.35;;;2.20;;
27889;SDS011;15238;49.082;9.102;2024-03-23T11:12:47;4.25;;;1.95;;
27889;SDS011;15238;49.082;9.102;2024-03-23T11:14:23;8.68;;;1.83;;
27889;SDS011;15238;49.082;9.102;2024-03-23T11:16:25;7.05;;;1.92;;
27889;SDS011;15238;49.082;9.102;2024-03-23T11:18:31;6.15;;;1.77;;
27889;SDS011;15238;49.082;9.102;2024-03-23T11:20:32;10.52;;;2.10;;
27889;SDS011;15238;49.082;9.102;2024-03-23T11:22:45;10.18;;;2.55;;
27889;SDS011;15238;49.082;9.102;2024-03-23T11:24:50;11.27;;;2.10;;
27889;SDS011;15238;49.082;9.102;2024-03-23T11:26:50;8.13;;;1.92;;
27889;SDS011;15238;49.082;9.102;2024-03-23T11:28:55;6.55;;;2.40;;
27889;SDS011;15238;49.082;9.102;2024-03-23T11:31:09;6.97;;;2.00;;
27889;SDS011;15238;49.082;9.102;2024-03-23T11:33:11;3.92;;;1.55;;
27889;SDS011;15238;49.082;9.102;2024-03-23T11:35:34;5.85;;;2.13;;
27889;SDS011;15238;49.082;9.102;2024-03-23T11:37:34;9.25;;;1.40;;
27889;SDS011;15238;49.082;9.102;2024-03-23T11:39:34;8.40;;;1.42;;
27889;SDS011;15238;49.082;9.102;2024-03-23T11:41:35;5.78;;;1.45;;
27889;SDS011;15238;49.082;9.102;2024-03-23T11:43:35;6.00;;;2.38;;
27889;SDS011;15238;49.082;9.102;2024-03-23T11:45:37;4.40;;;1.73;;
27889;SDS011;15238;49.082;9.102;2024-03-23T11:48:03;3.60;;;1.10;;
27889;SDS011;15238;49.082;9.102;2024-03-23T11:50:11;12.10;;;1.88;;
27889;SDS011;15238;49.082;9.102;2024-03-23T11:52:19;5.05;;;1.45;;
27889;SDS011;15238;49.082;9.102;2024-03-23T11:54:23;7.75;;;1.50;;
27889;SDS011;15238;49.082;9.102;2024-03-23T11:56:25;5.38;;;1.30;;
27889;SDS011;15238;49.082;9.102;2024-03-23T11:58:26;8.93;;;1.77;;
27889;SDS011;15238;49.082;9.102;2024-03-23T12:00:27;8.65;;;1.25;;
27889;SDS011;15238;49.082;9.102;2024-03-23T12:02:29;5.30;;;1.63;;
27889;SDS011;15238;49.082;9.102;2024-03-23T12:04:29;6.18;;;2.08;;
27889;SDS011;15238;49.082;9.102;2024-03-23T12:06:30;4.65;;;1.27;;
27889;SDS011;15238;49.082;9.102;2024-03-23T12:08:34;5.88;;;1.77;;
27889;SDS011;15238;49.082;9.102;2024-03-23T12:10:35;7.75;;;1.80;;
27889;SDS011;15238;49.082;9.102;2024-03-23T12:12:36;4.10;;;1.40;;
27889;SDS011;15238;49.082;9.102;2024-03-23T12:14:36;8.13;;;1.75;;
27889;SDS011;15238;49.082;9.102;2024-03-23T12:16:37;5.25;;;1.33;;
27889;SDS011;15238;49.082;9.102;2024-03-23T12:18:39;4.30;;;1.30;;
27889;SDS011;15238;49.082;9.102;2024-03-23T12:20:41;6.72;;;1.73;;
27889;SDS011;15238;49.082;9.102;2024-03-23T12:22:45;6.70;;;1.42;;
27889;SDS011;15238;49.082;9.102;2024-03-23T12:24:47;6.80;;;1.40;;
27889;SDS011;15238;49.082;9.102;2024-03-23T12:26:50;4.93;;;1.30;;
27889;SDS011;15238;49.082;9.102;2024-03-23T12:28:51;5.07;;;1.42;;
27889;SDS011;15238;49.082;9.102;2024-03-23T12:30:51;4.70;;;1.02;;
27889;SDS011;15238;49.082;9.102;2024-03-23T12:32:54;4.45;;;1.13;;
27889;SDS011;15238;49.082;9.102;2024-03-23T12:35:00;3.25;;;1.48;;
27889;SDS011;15238;49.082;9.102;2024-03-23T12:37:01;3.70;;;1.25;;
27889;SDS011;15238;49.082;9.102;2024-03-23T12:39:04;5.25;;;1.35;;
27889;SDS011;15238;49.082;9.102;2024-03-23T12:41:05;4.68;;;1.20;;
27889;SDS011;15238;49.082;9.102;2024-03-23T12:43:05;5.63;;;1.58;;
27889;SDS011;15238;49.082;9.102;2024-03-23T12:45:07;5.85;;;1.40;;
27889;SDS011;15238;49.082;9.102;2024-03-23T12:47:08;3.03;;;1.30;;
27889;SDS011;15238;49.082;9.102;2024-03-23T12:49:11;4.20;;;1.10;;
27889;SDS011;15238;49.082;9.102;2024-03-23T12:51:12;5.78;;;1.30;;
27889;SDS011;15238;49.082;9.102;2024-03-23T12:53:12;5.35;;;1.50;;
27889;SDS011;15238;49.082;9.102;2024-03-23T12:55:13;4.47;;;1.30;;
27889;SDS011;15238;49.082;9.102;2024-03-23T12:57:13;3.97;;;1.45;;
27889;SDS011;15238;49.082;9.102;2024-03-23T12:59:14;11.32;;;1.45;;
27889;SDS011;15238;49.082;9.102;2024-03-23T13:01:14;8.02;;;1.38;;
27889;SDS011;15238;49.082;9.102;2024-03-23T13:03:15;9.77;;;1.90;;
27889;SDS011;15238;49.082;9.102;2024-03-23T13:05:15;6.93;;;1.35;;